createdAt,value
2023-06-08T00:00:59.724Z,611.00
2023-06-08T00:01:59.752Z,615.00
2023-06-08T00:02:59.932Z,608.00
2023-06-08T00:03:59.897Z,611.00
2023-06-08T00:04:59.815Z,609.00
2023-06-08T00:05:59.896Z,609.00
2023-06-08T00:06:59.899Z,608.00
2023-06-08T00:07:59.939Z,605.00
2023-06-08T00:09:00.024Z,610.00
2023-06-08T00:10:00.034Z,607.00
2023-06-08T00:11:00.040Z,607.00
2023-06-08T00:12:00.050Z,607.00
2023-06-08T00:13:00.092Z,605.00
2023-06-08T00:14:00.158Z,605.00
2023-06-08T00:15:00.213Z,600.00
2023-06-08T00:16:00.223Z,603.00
2023-06-08T00:17:00.229Z,604.00
2023-06-08T00:18:00.286Z,602.00
2023-06-08T00:19:00.301Z,602.00
2023-06-08T00:20:00.365Z,602.00
2023-06-08T00:21:00.306Z,602.00
2023-06-08T00:22:00.378Z,603.00
2023-06-08T00:23:00.435Z,601.00
2023-06-08T00:24:00.506Z,603.00
2023-06-08T00:25:00.478Z,602.00
2023-06-08T00:26:00.539Z,602.00
2023-06-08T00:27:00.490Z,595.00
2023-06-08T00:28:00.571Z,602.00
2023-06-08T00:29:00.570Z,596.00
2023-06-08T00:30:00.579Z,598.00
2023-06-08T00:31:00.630Z,594.00
2023-06-08T00:32:00.763Z,592.00
2023-06-08T00:33:00.748Z,595.00
2023-06-08T00:34:00.743Z,594.00
2023-06-08T00:35:00.824Z,595.00
2023-06-08T00:36:00.797Z,595.00
2023-06-08T00:37:00.845Z,596.00
2023-06-08T00:38:00.882Z,592.00
2023-06-08T00:39:00.882Z,594.00
2023-06-08T00:40:00.966Z,593.00
2023-06-08T00:41:00.928Z,598.00
2023-06-08T00:42:00.982Z,594.00
2023-06-08T00:43:01.031Z,595.00
2023-06-08T00:44:01.098Z,594.00
2023-06-08T00:45:01.110Z,599.00
2023-06-08T00:46:01.116Z,596.00
2023-06-08T00:47:01.162Z,596.00
2023-06-08T00:48:01.234Z,595.00
2023-06-08T00:49:01.188Z,592.00
2023-06-08T00:50:01.241Z,595.00
2023-06-08T00:51:01.289Z,594.00
2023-06-08T00:52:01.278Z,592.00
2023-06-08T00:53:01.289Z,591.00
2023-06-08T00:54:01.294Z,593.00
2023-06-08T00:55:01.322Z,590.00
2023-06-08T00:56:01.317Z,597.00
2023-06-08T00:57:01.346Z,592.00
2023-06-08T00:58:01.404Z,587.00
2023-06-08T00:59:01.406Z,596.00
2023-06-08T01:00:01.423Z,589.00
2023-06-08T01:01:01.487Z,592.00
2023-06-08T01:02:01.458Z,589.00
2023-06-08T01:03:01.484Z,590.00
2023-06-08T01:04:01.499Z,590.00
2023-06-08T01:05:01.523Z,593.00
2023-06-08T01:06:01.472Z,589.00
2023-06-08T01:07:01.507Z,594.00
2023-06-08T01:08:01.512Z,589.00
2023-06-08T01:09:01.538Z,594.00
2023-06-08T01:10:01.512Z,589.00
2023-06-08T01:11:01.521Z,592.00
2023-06-08T01:12:01.519Z,588.00
2023-06-08T01:13:01.553Z,588.00
2023-06-08T01:14:01.594Z,589.00
2023-06-08T01:15:01.691Z,586.00
2023-06-08T01:16:01.661Z,589.00
2023-06-08T01:17:03.513Z,591.00
2023-06-08T01:18:01.616Z,593.00
2023-06-08T01:19:01.588Z,589.00
2023-06-08T01:20:01.610Z,585.00
2023-06-08T01:21:01.568Z,589.00
2023-06-08T01:22:01.565Z,586.00
2023-06-08T01:23:01.551Z,588.00
2023-06-08T01:24:01.602Z,589.00
2023-06-08T01:25:01.576Z,591.00
2023-06-08T01:26:01.523Z,589.00
2023-06-08T01:27:01.496Z,592.00
2023-06-08T01:28:01.509Z,588.00
2023-06-08T01:29:01.473Z,586.00
2023-06-08T01:30:01.478Z,587.00
2023-06-08T01:31:01.472Z,579.00
2023-06-08T01:32:01.472Z,588.00
2023-06-08T01:33:01.516Z,586.00
2023-06-08T01:34:01.453Z,588.00
2023-06-08T01:35:01.484Z,586.00
2023-06-08T01:36:01.460Z,585.00
2023-06-08T01:37:01.433Z,590.00
2023-06-08T01:38:01.444Z,583.00
2023-06-08T01:39:01.435Z,585.00
2023-06-08T01:40:01.440Z,585.00
2023-06-08T01:41:01.385Z,586.00
2023-06-08T01:42:01.404Z,580.00
2023-06-08T01:43:01.413Z,583.00
2023-06-08T01:44:01.422Z,584.00
2023-06-08T01:45:01.401Z,581.00
2023-06-08T01:46:01.355Z,582.00
2023-06-08T01:47:01.437Z,583.00
2023-06-08T01:48:01.374Z,581.00
2023-06-08T01:49:01.357Z,582.00
2023-06-08T01:50:01.313Z,584.00
2023-06-08T01:51:01.387Z,583.00
2023-06-08T01:52:01.311Z,583.00
2023-06-08T01:53:01.306Z,582.00
2023-06-08T01:54:01.336Z,582.00
2023-06-08T01:55:01.338Z,580.00
2023-06-08T01:56:01.300Z,582.00
2023-06-08T01:57:01.309Z,582.00
2023-06-08T01:58:01.320Z,581.00
2023-06-08T01:59:01.264Z,584.00
2023-06-08T02:00:01.251Z,577.00
2023-06-08T02:01:01.348Z,579.00
2023-06-08T02:02:01.330Z,578.00
2023-06-08T02:03:01.782Z,582.00
2023-06-08T02:04:01.252Z,584.00
2023-06-08T02:05:01.282Z,578.00
2023-06-08T02:06:01.234Z,580.00
2023-06-08T02:07:01.229Z,579.00
2023-06-08T02:08:01.213Z,576.00
2023-06-08T02:09:01.206Z,578.00
2023-06-08T02:10:01.220Z,581.00
2023-06-08T02:11:01.197Z,579.00
2023-06-08T02:12:01.210Z,579.00
2023-06-08T02:13:01.217Z,577.00
2023-06-08T02:14:01.193Z,582.00
2023-06-08T02:15:01.171Z,575.00
2023-06-08T02:16:01.170Z,578.00
2023-06-08T02:17:01.295Z,577.00
2023-06-08T02:18:01.190Z,577.00
2023-06-08T02:19:08.162Z,579.00
2023-06-08T02:20:01.160Z,580.00
2023-06-08T02:21:01.142Z,581.00
2023-06-08T02:22:01.123Z,580.00
2023-06-08T02:23:01.157Z,578.00
2023-06-08T02:24:01.166Z,578.00
2023-06-08T02:25:01.115Z,574.00
2023-06-08T02:26:01.110Z,579.00
2023-06-08T02:27:01.063Z,575.00
2023-06-08T02:28:01.064Z,578.00
2023-06-08T02:29:01.097Z,579.00
2023-06-08T02:30:01.065Z,572.00
2023-06-08T02:31:01.047Z,576.00
2023-06-08T02:32:01.027Z,577.00
2023-06-08T02:33:01.133Z,580.00
2023-06-08T02:34:01.036Z,576.00
2023-06-08T02:35:01.040Z,574.00
2023-06-08T02:36:01.058Z,574.00
2023-06-08T02:37:01.025Z,573.00
2023-06-08T02:38:01.262Z,581.00
2023-06-08T02:39:00.987Z,576.00
2023-06-08T02:40:00.985Z,575.00
2023-06-08T02:41:00.964Z,578.00
2023-06-08T02:42:00.983Z,576.00
2023-06-08T02:43:01.292Z,572.00
2023-06-08T02:44:01.003Z,572.00
2023-06-08T02:45:00.976Z,574.00
2023-06-08T02:46:00.972Z,574.00
2023-06-08T02:47:00.967Z,572.00
2023-06-08T02:48:01.320Z,572.00
2023-06-08T02:49:00.923Z,570.00
2023-06-08T02:50:00.929Z,569.00
2023-06-08T02:51:00.954Z,572.00
2023-06-08T02:52:00.946Z,573.00
2023-06-08T02:53:00.903Z,575.00
2023-06-08T02:54:00.910Z,573.00
2023-06-08T02:55:00.891Z,573.00
2023-06-08T02:56:00.874Z,566.00
2023-06-08T02:57:00.840Z,571.00
2023-06-08T02:58:00.883Z,567.00
2023-06-08T02:59:00.849Z,569.00
2023-06-08T03:00:00.847Z,566.00
2023-06-08T03:01:11.711Z,569.00
2023-06-08T03:02:01.849Z,570.00
2023-06-08T03:03:01.366Z,569.00
2023-06-08T03:04:00.833Z,569.00
2023-06-08T03:05:00.831Z,570.00
2023-06-08T03:06:00.813Z,571.00
2023-06-08T03:07:00.822Z,566.00
2023-06-08T03:08:00.823Z,567.00
2023-06-08T03:09:00.761Z,571.00
2023-06-08T03:10:00.760Z,568.00
2023-06-08T03:11:00.769Z,571.00
2023-06-08T03:12:00.801Z,571.00
2023-06-08T03:13:04.278Z,562.00
2023-06-08T03:14:00.739Z,562.00
2023-06-08T03:15:00.727Z,563.00
2023-06-08T03:16:00.833Z,564.00
2023-06-08T03:17:00.728Z,566.00
2023-06-08T03:18:00.819Z,569.00
2023-06-08T03:19:00.751Z,561.00
2023-06-08T03:20:00.702Z,565.00
2023-06-08T03:21:00.714Z,565.00
2023-06-08T03:22:00.685Z,567.00
2023-06-08T03:23:00.680Z,569.00
2023-06-08T03:24:00.725Z,564.00
2023-06-08T03:25:00.674Z,561.00
2023-06-08T03:26:00.695Z,560.00
2023-06-08T03:27:00.683Z,561.00
2023-06-08T03:28:00.653Z,566.00
2023-06-08T03:29:00.652Z,561.00
2023-06-08T03:30:00.643Z,564.00
2023-06-08T03:31:00.645Z,560.00
2023-06-08T03:32:00.669Z,557.00
2023-06-08T03:33:00.697Z,562.00
2023-06-08T03:34:00.590Z,561.00
2023-06-08T03:35:00.588Z,553.00
2023-06-08T03:36:00.653Z,558.00
2023-06-08T03:37:00.614Z,555.00
2023-06-08T03:38:00.795Z,560.00
2023-06-08T03:39:00.562Z,555.00
2023-06-08T03:40:00.562Z,553.00
2023-06-08T03:41:00.544Z,555.00
2023-06-08T03:42:00.533Z,557.00
2023-06-08T03:43:00.544Z,554.00
2023-06-08T03:44:00.540Z,552.00
2023-06-08T03:45:00.555Z,555.00
2023-06-08T03:46:00.606Z,551.00
2023-06-08T03:47:00.588Z,554.00
2023-06-08T03:48:00.569Z,557.00
2023-06-08T03:49:00.498Z,555.00
2023-06-08T03:50:00.492Z,553.00
2023-06-08T03:51:03.568Z,552.00
2023-06-08T03:52:00.496Z,552.00
2023-06-08T03:53:00.460Z,552.00
2023-06-08T03:54:00.419Z,551.00
2023-06-08T03:55:00.474Z,554.00
2023-06-08T03:56:00.428Z,553.00
2023-06-08T03:57:00.493Z,551.00
2023-06-08T03:58:00.414Z,548.00
2023-06-08T03:59:00.416Z,550.00
2023-06-08T04:00:00.391Z,548.00
2023-06-08T04:01:00.413Z,548.00
2023-06-08T04:02:00.411Z,547.00
2023-06-08T04:03:00.529Z,555.00
2023-06-08T04:04:00.537Z,548.00
2023-06-08T04:05:00.422Z,545.00
2023-06-08T04:06:00.369Z,547.00
2023-06-08T04:07:00.401Z,545.00
2023-06-08T04:08:00.345Z,549.00
2023-06-08T04:09:00.342Z,545.00
2023-06-08T04:10:00.377Z,551.00
2023-06-08T04:11:00.372Z,551.00
2023-06-08T04:12:00.341Z,554.00
2023-06-08T04:13:00.326Z,546.00
2023-06-08T04:14:00.346Z,549.00
2023-06-08T04:15:00.301Z,547.00
2023-06-08T04:16:00.472Z,549.00
2023-06-08T04:17:00.287Z,546.00
2023-06-08T04:18:00.317Z,546.00
2023-06-08T04:19:00.270Z,545.00
2023-06-08T04:20:00.283Z,545.00
2023-06-08T04:21:00.322Z,547.00
2023-06-08T04:22:00.350Z,546.00
2023-06-08T04:23:00.301Z,544.00
2023-06-08T04:24:00.344Z,545.00
2023-06-08T04:25:00.230Z,544.00
2023-06-08T04:26:00.217Z,543.00
2023-06-08T04:27:00.223Z,541.00
2023-06-08T04:28:00.231Z,545.00
2023-06-08T04:29:00.208Z,546.00
2023-06-08T04:30:00.246Z,543.00
2023-06-08T04:31:00.859Z,542.00
2023-06-08T04:32:00.166Z,548.00
2023-06-08T04:33:00.222Z,546.00
2023-06-08T04:34:00.173Z,539.00
2023-06-08T04:35:00.180Z,546.00
2023-06-08T04:36:00.169Z,539.00
2023-06-08T04:37:00.178Z,541.00
2023-06-08T04:38:00.144Z,541.00
2023-06-08T04:39:00.145Z,541.00
2023-06-08T04:40:00.142Z,538.00
2023-06-08T04:41:00.141Z,538.00
2023-06-08T04:42:00.195Z,540.00
2023-06-08T04:43:00.162Z,540.00
2023-06-08T04:44:00.157Z,544.00
2023-06-08T04:45:00.179Z,536.00
2023-06-08T04:46:00.165Z,537.00
2023-06-08T04:47:00.275Z,540.00
2023-06-08T04:48:00.222Z,542.00
2023-06-08T04:49:00.206Z,539.00
2023-06-08T04:50:00.258Z,537.00
2023-06-08T04:51:00.242Z,538.00
2023-06-08T04:52:00.240Z,536.00
2023-06-08T04:53:00.286Z,535.00
2023-06-08T04:54:00.281Z,539.00
2023-06-08T04:55:00.291Z,538.00
2023-06-08T04:56:00.292Z,539.00
2023-06-08T04:57:00.312Z,516.00
2023-06-08T04:58:00.354Z,512.00
2023-06-08T04:59:00.351Z,500.00
2023-06-08T05:00:00.351Z,504.00
2023-06-08T05:01:00.421Z,502.00
2023-06-08T05:02:00.373Z,502.00
2023-06-08T05:03:00.559Z,515.00
2023-06-08T05:04:00.430Z,526.00
2023-06-08T05:05:00.429Z,513.00
2023-06-08T05:06:00.467Z,508.00
2023-06-08T05:07:00.488Z,504.00
2023-06-08T05:08:00.494Z,500.00
2023-06-08T05:09:00.539Z,511.00
2023-06-08T05:10:00.593Z,503.00
2023-06-08T05:11:00.607Z,508.00
2023-06-08T05:12:00.609Z,504.00
2023-06-08T05:13:00.648Z,500.00
2023-06-08T05:14:00.651Z,519.00
2023-06-08T05:15:00.766Z,512.00
2023-06-08T05:16:00.732Z,504.00
2023-06-08T05:17:00.860Z,502.00
2023-06-08T05:18:00.837Z,506.00
2023-06-08T05:19:00.815Z,515.00
2023-06-08T05:20:00.834Z,516.00
2023-06-08T05:21:01.837Z,505.00
2023-06-08T05:22:00.881Z,513.00
2023-06-08T05:23:00.932Z,533.00
2023-06-08T05:24:01.019Z,510.00
2023-06-08T05:25:01.013Z,506.00
2023-06-08T05:26:01.010Z,508.00
2023-06-08T05:27:01.008Z,512.00
2023-06-08T05:28:01.076Z,515.00
2023-06-08T05:29:01.061Z,503.00
2023-06-08T05:30:04.997Z,504.00
2023-06-08T05:31:01.143Z,505.00
2023-06-08T05:32:01.048Z,510.00
2023-06-08T05:33:01.162Z,509.00
2023-06-08T05:34:01.070Z,518.00
2023-06-08T05:35:01.071Z,516.00
2023-06-08T05:36:04.718Z,513.00
2023-06-08T05:37:01.052Z,514.00
2023-06-08T05:38:01.024Z,514.00
2023-06-08T05:39:01.011Z,514.00
2023-06-08T05:40:01.045Z,515.00
2023-06-08T05:41:01.011Z,503.00
2023-06-08T05:42:00.979Z,509.00
2023-06-08T05:43:01.011Z,507.00
2023-06-08T05:44:00.983Z,512.00
2023-06-08T05:45:00.985Z,508.00
2023-06-08T05:46:00.944Z,508.00
2023-06-08T05:47:01.848Z,501.00
2023-06-08T05:48:01.076Z,507.00
2023-06-08T05:49:00.990Z,511.00
2023-06-08T05:50:00.945Z,504.00
2023-06-08T05:51:00.972Z,511.00
2023-06-08T05:52:00.945Z,515.00
2023-06-08T05:53:00.911Z,510.00
2023-06-08T05:54:00.926Z,517.00
2023-06-08T05:55:00.916Z,511.00
2023-06-08T05:56:00.890Z,518.00
2023-06-08T05:57:00.938Z,512.00
2023-06-08T05:58:00.971Z,519.00
2023-06-08T05:59:01.023Z,508.00
2023-06-08T06:00:01.071Z,509.00
2023-06-08T06:01:01.056Z,528.00
2023-06-08T06:02:01.096Z,512.00
2023-06-08T06:03:03.826Z,504.00
2023-06-08T06:04:01.300Z,516.00
2023-06-08T06:05:01.243Z,510.00
2023-06-08T06:06:01.117Z,519.00
2023-06-08T06:07:01.128Z,507.00
2023-06-08T06:08:01.075Z,524.00
2023-06-08T06:09:01.109Z,516.00
2023-06-08T06:10:01.066Z,514.00
2023-06-08T06:11:01.068Z,510.00
2023-06-08T06:12:01.088Z,508.00
2023-06-08T06:13:01.151Z,513.00
2023-06-08T06:14:01.064Z,515.00
2023-06-08T06:15:01.103Z,510.00
2023-06-08T06:16:01.128Z,513.00
2023-06-08T06:17:07.522Z,509.00
2023-06-08T06:18:02.067Z,510.00
2023-06-08T06:19:01.063Z,509.00
2023-06-08T06:20:01.005Z,510.00
2023-06-08T06:21:01.002Z,501.00
2023-06-08T06:22:00.965Z,514.00
2023-06-08T06:23:01.018Z,500.00
2023-06-08T06:24:01.059Z,505.00
2023-06-08T06:25:00.967Z,507.00
2023-06-08T06:26:00.969Z,514.00
2023-06-08T06:27:00.943Z,508.00
2023-06-08T06:28:00.953Z,508.00
2023-06-08T06:29:00.969Z,504.00
2023-06-08T06:30:00.964Z,506.00
2023-06-08T06:31:00.976Z,515.00
2023-06-08T06:32:01.014Z,513.00
2023-06-08T06:33:00.957Z,508.00
2023-06-08T06:34:00.933Z,507.00
2023-06-08T06:35:00.979Z,507.00
2023-06-08T06:36:01.019Z,508.00
2023-06-08T06:37:01.052Z,514.00
2023-06-08T06:38:01.063Z,510.00
2023-06-08T06:39:01.068Z,513.00
2023-06-08T06:40:01.097Z,509.00
2023-06-08T06:41:01.103Z,509.00
2023-06-08T06:42:01.154Z,512.00
2023-06-08T06:43:01.150Z,507.00
2023-06-08T06:44:01.210Z,504.00
2023-06-08T06:45:01.205Z,514.00
2023-06-08T06:46:01.296Z,512.00
2023-06-08T06:47:01.289Z,504.00
2023-06-08T06:48:01.391Z,506.00
2023-06-08T06:49:01.291Z,507.00
2023-06-08T06:50:01.349Z,507.00
2023-06-08T06:51:01.399Z,526.00
2023-06-08T06:52:01.385Z,523.00
2023-06-08T06:53:01.432Z,503.00
2023-06-08T06:54:01.439Z,500.00
2023-06-08T06:55:01.505Z,501.00
2023-06-08T06:56:01.496Z,509.00
2023-06-08T06:57:01.508Z,508.00
2023-06-08T06:58:01.888Z,506.00
2023-06-08T06:59:01.564Z,510.00
2023-06-08T07:00:01.550Z,503.00
2023-06-08T07:01:01.617Z,506.00
2023-06-08T07:02:01.709Z,506.00
2023-06-08T07:03:01.648Z,503.00
2023-06-08T07:04:01.716Z,506.00
2023-06-08T07:05:01.694Z,504.00
2023-06-08T07:06:01.736Z,514.00
2023-06-08T07:07:01.811Z,501.00
2023-06-08T07:08:01.804Z,506.00
2023-06-08T07:09:01.862Z,516.00
2023-06-08T07:10:01.894Z,504.00
2023-06-08T07:11:01.903Z,518.00
2023-06-08T07:12:14.880Z,511.00
2023-06-08T07:13:02.908Z,512.00
2023-06-08T07:14:01.927Z,512.00
2023-06-08T07:15:01.889Z,511.00
2023-06-08T07:16:01.956Z,507.00
2023-06-08T07:17:01.882Z,512.00
2023-06-08T07:18:02.416Z,522.00
2023-06-08T07:19:01.871Z,536.00
2023-06-08T07:20:01.880Z,522.00
2023-06-08T07:21:01.877Z,535.00
2023-06-08T07:22:06.105Z,525.00
2023-06-08T07:23:24.039Z,522.00
2023-06-08T07:24:34.708Z,525.00
2023-06-08T07:25:51.366Z,526.00
2023-06-08T07:26:29.165Z,526.00
2023-06-08T07:27:02.854Z,526.00
2023-06-08T07:28:04.167Z,526.00
2023-06-08T07:29:01.809Z,526.00
2023-06-08T07:30:01.804Z,527.00
2023-06-08T07:31:01.878Z,533.00
2023-06-08T07:32:01.776Z,525.00
2023-06-08T07:33:01.829Z,525.00
2023-06-08T07:34:01.755Z,583.00
2023-06-08T07:35:01.755Z,574.00
2023-06-08T07:36:01.778Z,552.00
2023-06-08T07:37:01.757Z,543.00
2023-06-08T07:38:01.760Z,546.00
2023-06-08T07:39:01.755Z,554.00
2023-06-08T07:40:01.716Z,587.00
2023-06-08T07:41:01.703Z,565.00
2023-06-08T07:42:01.712Z,565.00
2023-06-08T07:43:01.716Z,571.00
2023-06-08T07:44:01.672Z,563.00
2023-06-08T07:45:01.659Z,534.00
2023-06-08T07:46:01.700Z,524.00
2023-06-08T07:47:01.779Z,524.00
2023-06-08T07:48:01.792Z,576.00
2023-06-08T07:49:01.887Z,527.00
2023-06-08T07:50:01.858Z,586.00
2023-06-08T07:51:01.786Z,563.00
2023-06-08T07:52:01.794Z,558.00
2023-06-08T07:53:01.844Z,543.00
2023-06-08T07:54:01.876Z,568.00
2023-06-08T07:55:01.889Z,535.00
2023-06-08T07:56:01.880Z,586.00
2023-06-08T07:57:01.952Z,558.00
2023-06-08T07:58:01.937Z,541.00
2023-06-08T07:59:02.011Z,576.00
2023-06-08T08:00:01.977Z,549.00
2023-06-08T08:01:02.089Z,537.00
2023-06-08T08:02:02.084Z,532.00
2023-06-08T08:03:02.303Z,540.00
2023-06-08T08:04:02.501Z,582.00
2023-06-08T08:05:02.065Z,527.00
2023-06-08T08:06:02.094Z,581.00
2023-06-08T08:07:02.105Z,533.00
2023-06-08T08:08:02.103Z,500.00
2023-06-08T08:09:02.415Z,545.00
2023-06-08T08:10:02.157Z,559.00
2023-06-08T08:11:02.203Z,536.00
2023-06-08T08:12:02.154Z,507.00
2023-06-08T08:13:02.147Z,544.00
2023-06-08T08:14:02.384Z,520.00
2023-06-08T08:15:02.218Z,502.00
2023-06-08T08:16:02.230Z,520.00
2023-06-08T08:17:02.246Z,528.00
2023-06-08T08:18:02.239Z,518.00
2023-06-08T08:19:02.231Z,574.00
2023-06-08T08:20:02.248Z,528.00
2023-06-08T08:21:02.324Z,499.00
2023-06-08T08:22:02.289Z,508.00
2023-06-08T08:23:02.300Z,536.00
2023-06-08T08:24:02.442Z,525.00
2023-06-08T08:25:02.340Z,503.00
2023-06-08T08:26:02.352Z,524.00
2023-06-08T08:27:02.338Z,516.00
2023-06-08T08:28:02.352Z,567.00
2023-06-08T08:29:02.345Z,538.00
2023-06-08T08:30:02.373Z,529.00
2023-06-08T08:31:02.434Z,513.00
2023-06-08T08:32:02.368Z,525.00
2023-06-08T08:33:02.417Z,502.00
2023-06-08T08:34:02.445Z,507.00
2023-06-08T08:35:02.412Z,526.00
2023-06-08T08:36:02.441Z,513.00
2023-06-08T08:37:02.429Z,504.00
2023-06-08T08:38:02.456Z,539.00
2023-06-08T08:39:02.930Z,517.00
2023-06-08T08:40:02.422Z,548.00
2023-06-08T08:41:02.458Z,579.00
2023-06-08T08:42:02.429Z,529.00
2023-06-08T08:43:02.459Z,522.00
2023-06-08T08:44:02.594Z,509.00
2023-06-08T08:45:02.503Z,509.00
2023-06-08T08:46:02.518Z,534.00
2023-06-08T08:47:02.549Z,520.00
2023-06-08T08:48:02.631Z,520.00
2023-06-08T08:49:04.599Z,563.00
2023-06-08T08:50:02.507Z,610.00
2023-06-08T08:51:02.530Z,556.00
2023-06-08T08:52:02.549Z,592.00
2023-06-08T08:53:02.487Z,572.00
2023-06-08T08:54:02.907Z,535.00
2023-06-08T08:55:02.522Z,597.00
2023-06-08T08:56:02.466Z,582.00
2023-06-08T08:57:02.467Z,619.00
2023-06-08T08:58:02.480Z,556.00
2023-06-08T08:59:02.473Z,541.00
2023-06-08T09:00:02.548Z,568.00
2023-06-08T09:01:02.465Z,547.00
2023-06-08T09:02:02.467Z,599.00
2023-06-08T09:03:02.564Z,597.00
2023-06-08T09:04:03.000Z,573.00
2023-06-08T09:05:02.409Z,603.00
2023-06-08T09:06:02.407Z,627.00
2023-06-08T09:07:02.424Z,611.00
2023-06-08T09:08:02.402Z,584.00
2023-06-08T09:09:02.396Z,617.00
2023-06-08T09:10:02.405Z,628.00
2023-06-08T09:11:02.376Z,637.00
2023-06-08T09:12:02.436Z,595.00
2023-06-08T09:13:02.362Z,608.00
2023-06-08T09:14:02.367Z,623.00
2023-06-08T09:15:02.711Z,599.00
2023-06-08T09:16:02.362Z,610.00
2023-06-08T09:17:02.378Z,609.00
2023-06-08T09:18:02.343Z,620.00
2023-06-08T09:19:02.318Z,601.00
2023-06-08T09:20:02.300Z,602.00
2023-06-08T09:21:02.316Z,599.00
2023-06-08T09:22:02.280Z,580.00
2023-06-08T09:23:02.277Z,544.00
2023-06-08T09:24:02.516Z,571.00
2023-06-08T09:25:02.283Z,556.00
2023-06-08T09:26:02.269Z,597.00
2023-06-08T09:27:02.249Z,548.00
2023-06-08T09:28:02.247Z,523.00
2023-06-08T09:29:02.487Z,550.00
2023-06-08T09:30:02.258Z,522.00
2023-06-08T09:31:02.445Z,547.00
2023-06-08T09:32:02.466Z,555.00
2023-06-08T09:33:02.235Z,512.00
2023-06-08T09:34:02.214Z,519.00
2023-06-08T09:35:03.130Z,528.00
2023-06-08T09:36:02.241Z,563.00
2023-06-08T09:37:02.172Z,571.00
2023-06-08T09:38:02.152Z,558.00
2023-06-08T09:39:02.210Z,534.00
2023-06-08T09:40:02.185Z,544.00
2023-06-08T09:41:02.180Z,531.00
2023-06-08T09:42:02.152Z,516.00
2023-06-08T09:43:02.139Z,499.00
2023-06-08T09:44:02.162Z,523.00
2023-06-08T09:45:02.096Z,506.00
2023-06-08T09:46:02.189Z,513.00
2023-06-08T09:47:02.176Z,541.00
2023-06-08T09:48:02.127Z,523.00
2023-06-08T09:49:02.098Z,515.00
2023-06-08T09:50:02.131Z,558.00
2023-06-08T09:51:02.069Z,614.00
2023-06-08T09:52:04.378Z,542.00
2023-06-08T09:53:02.091Z,543.00
2023-06-08T09:54:02.447Z,531.00
2023-06-08T09:55:02.054Z,534.00
2023-06-08T09:56:02.087Z,616.00
2023-06-08T09:57:02.049Z,571.00
2023-06-08T09:58:02.048Z,544.00
2023-06-08T09:59:02.030Z,624.00
2023-06-08T10:00:02.039Z,556.00
2023-06-08T10:01:02.035Z,580.00
2023-06-08T10:02:02.067Z,526.00
2023-06-08T10:03:02.057Z,658.00
2023-06-08T10:04:04.457Z,601.00
2023-06-08T10:05:02.004Z,550.00
2023-06-08T10:06:01.974Z,536.00
2023-06-08T10:07:01.984Z,564.00
2023-06-08T10:08:01.980Z,622.00
2023-06-08T10:09:01.972Z,564.00
2023-06-08T10:10:01.938Z,587.00
2023-06-08T10:11:01.957Z,684.00
2023-06-08T10:12:01.976Z,625.00
2023-06-08T10:13:01.962Z,677.00
2023-06-08T10:14:01.998Z,601.00
2023-06-08T10:15:01.953Z,631.00
2023-06-08T10:16:01.937Z,635.00
2023-06-08T10:17:01.871Z,616.00
2023-06-08T10:18:01.960Z,597.00
2023-06-08T10:19:01.910Z,563.00
2023-06-08T10:20:01.880Z,566.00
2023-06-08T10:21:01.900Z,601.00
2023-06-08T10:22:01.857Z,584.00
2023-06-08T10:23:01.865Z,601.00
2023-06-08T10:24:02.006Z,613.00
2023-06-08T10:26:02.835Z,608.00
2023-06-08T10:27:01.826Z,634.00
2023-06-08T10:28:01.903Z,610.00
2023-06-08T10:29:16.474Z,588.00
2023-06-08T10:30:02.831Z,631.00
2023-06-08T10:31:01.848Z,636.00
2023-06-08T10:32:01.823Z,649.00
2023-06-08T10:33:01.850Z,654.00
2023-06-08T10:34:01.788Z,832.00
2023-06-08T10:35:01.773Z,929.00
2023-06-08T10:36:01.744Z,988.00
2023-06-08T10:37:01.777Z,933.00
2023-06-08T10:38:01.766Z,897.00
2023-06-08T10:39:01.768Z,898.00
2023-06-08T10:40:01.751Z,1093.00
2023-06-08T10:41:01.762Z,787.00
2023-06-08T10:42:01.730Z,918.00
2023-06-08T10:43:15.038Z,856.00
2023-06-08T10:44:02.997Z,861.00
2023-06-08T10:45:01.715Z,705.00
2023-06-08T10:46:01.797Z,858.00
2023-06-08T10:47:01.709Z,671.00
2023-06-08T10:48:01.731Z,840.00
2023-06-08T10:49:01.699Z,675.00
2023-06-08T10:50:01.728Z,667.00
2023-06-08T10:51:01.651Z,643.00
2023-06-08T10:52:01.666Z,915.00
2023-06-08T10:53:01.654Z,800.00
2023-06-08T10:54:02.015Z,772.00
2023-06-08T10:55:01.643Z,713.00
2023-06-08T10:56:01.635Z,688.00
2023-06-08T10:57:15.686Z,736.00
2023-06-08T10:58:02.654Z,737.00
2023-06-08T10:59:01.976Z,753.00
2023-06-08T11:00:01.646Z,765.00
2023-06-08T11:01:01.670Z,828.00
2023-06-08T11:02:01.716Z,769.00
2023-06-08T11:03:01.855Z,683.00
2023-06-08T11:04:01.872Z,770.00
2023-06-08T11:05:01.625Z,629.00
2023-06-08T11:06:01.606Z,605.00
2023-06-08T11:07:01.668Z,667.00
2023-06-08T11:08:01.678Z,761.00
2023-06-08T11:09:01.694Z,634.00
2023-06-08T11:10:01.713Z,620.00
2023-06-08T11:11:01.744Z,622.00
2023-06-08T11:12:01.767Z,631.00
2023-06-08T11:13:01.788Z,700.00
2023-06-08T11:14:01.986Z,824.00
2023-06-08T11:15:01.826Z,784.00
2023-06-08T11:16:01.903Z,1045.00
2023-06-08T11:17:01.887Z,1147.00
2023-06-08T11:18:01.937Z,1172.00
2023-06-08T11:19:01.937Z,1182.00
2023-06-08T11:20:01.923Z,944.00
2023-06-08T11:21:01.943Z,883.00
2023-06-08T11:22:02.016Z,816.00
2023-06-08T11:23:01.984Z,707.00
2023-06-08T11:24:02.065Z,730.00
2023-06-08T11:25:02.028Z,692.00
2023-06-08T11:26:02.030Z,997.00
2023-06-08T11:27:04.138Z,936.00
2023-06-08T11:28:02.041Z,1038.00
2023-06-08T11:29:02.004Z,839.00
2023-06-08T11:30:02.021Z,985.00
2023-06-08T11:31:02.058Z,863.00
2023-06-08T11:32:01.995Z,1033.00
2023-06-08T11:33:02.079Z,853.00
2023-06-08T11:34:01.973Z,1107.00
2023-06-08T11:35:01.993Z,940.00
2023-06-08T11:36:01.997Z,961.00
2023-06-08T11:37:01.948Z,1060.00
2023-06-08T11:38:01.956Z,1042.00
2023-06-08T11:39:01.950Z,939.00
2023-06-08T11:40:01.978Z,953.00
2023-06-08T11:41:01.950Z,940.00
2023-06-08T11:42:01.946Z,1027.00
2023-06-08T11:43:02.155Z,870.00
2023-06-08T11:44:04.198Z,1086.00
2023-06-08T11:45:01.903Z,1092.00
2023-06-08T11:46:01.927Z,955.00
2023-06-08T11:47:01.981Z,1041.00
2023-06-08T11:48:16.089Z,983.00
2023-06-08T11:49:02.896Z,1090.00
2023-06-08T11:50:01.872Z,1107.00
2023-06-08T11:51:01.868Z,1126.00
2023-06-08T11:52:01.855Z,889.00
2023-06-08T11:53:01.869Z,1042.00
2023-06-08T11:54:01.839Z,1216.00
2023-06-08T11:55:01.832Z,1269.00
2023-06-08T11:56:01.841Z,1231.00
2023-06-08T11:57:01.822Z,973.00
2023-06-08T11:58:01.851Z,903.00
2023-06-08T11:59:01.809Z,1118.00
2023-06-08T12:00:01.802Z,1212.00
2023-06-08T12:01:01.796Z,1022.00
2023-06-08T12:02:01.839Z,1092.00
2023-06-08T12:03:01.869Z,1136.00
2023-06-08T12:04:02.110Z,1070.00
2023-06-08T12:05:01.779Z,1211.00
2023-06-08T12:06:01.763Z,1041.00
2023-06-08T12:07:01.744Z,1154.00
2023-06-08T12:08:01.751Z,1088.00
2023-06-08T12:09:01.778Z,1095.00
2023-06-08T12:10:01.750Z,1086.00
2023-06-08T12:11:01.725Z,1125.00
2023-06-08T12:12:01.715Z,911.00
2023-06-08T12:13:01.676Z,1129.00
2023-06-08T12:14:01.998Z,1091.00
2023-06-08T12:15:01.702Z,983.00
2023-06-08T12:16:01.700Z,1119.00
2023-06-08T12:17:01.759Z,1114.00
2023-06-08T12:18:01.734Z,1114.00
2023-06-08T12:19:02.022Z,1044.00
2023-06-08T12:20:01.660Z,1006.00
2023-06-08T12:21:01.646Z,983.00
2023-06-08T12:22:01.662Z,955.00
2023-06-08T12:23:01.633Z,922.00
2023-06-08T12:24:02.026Z,981.00
2023-06-08T12:25:01.647Z,975.00
2023-06-08T12:26:01.678Z,947.00
2023-06-08T12:27:01.679Z,946.00
2023-06-08T12:28:01.703Z,896.00
2023-06-08T12:29:01.710Z,953.00